セブ の空港の天気 - METARとTAF

マクタン・セブ国際空港 ( RPVM / CEB ) - フィリピン セブ / ラプ=ラプ
飛行場実況気象(Metar)
観測時間10/21 01:00 PHT (10/20 17:00 UTC)
風向・風速不定 1m/s
視程10km以上
天気現象
少しの雲 雲底高度 610m
全天の8割程度の雲 雲底高度 2740m
気温26℃
湿度89%
気圧1011hPa
METARRPVM 201700Z VRB02KT 9999 FEW020 BKN090 26/24 Q1011 RMK A2985
過去の天気等 Google飛行場航空写真 Wunderground天気予報

過去48時間のMETAR

飛行場予報(TAF)
発表時間: 10/20 19:00 PHT (10/20 11:00 UTC)
予報対象時間: 20日20時 PHT ~ 22日2時 PHT
風向・風速北東 3m/s
視程10km以上
少しの雲 雲底高度 610m
全天の4割程度の雲 雲底高度 9140m
20日20時 PHT ~ 21日2時 PHT に一時的に
風向・風速北 4m/s
視程8000m
天気現象弱い雷雨
少しの積乱雲 雲底高度 550m
全天の4割程度の雲 雲底高度 610m
全天の8割程度の雲 雲底高度 2740m
21日2時 PHT ~ 21日8時 PHT に一時的に
風向・風速不定 2m/s
視程9000m
天気現象弱いしゅう雨
少しの積乱雲 雲底高度 550m
全天の4割程度の雲 雲底高度 610m
全天の8割程度の雲 雲底高度 3050m
TAF RPVM 201100Z 2012/2118 04005KT 9999 FEW020 SCT300
TEMPO 2012/2018 35007KT 8000 -TSRA FEW018CB SCT020 BKN090
TEMPO 2018/2024 VRB03KT 9000 -SHRA FEW018CB SCT020 BKN100